Time;durP1;ratioP1;P1;durP2;ratioP2;P2;SDS_P1;SDS_P2;PMS_P1;PMS_P2;Temp;Humidity;BMP_temperature;BMP_pressure;BME280_temperature;BME280_humidity;BME280_pressure;Samples;Min_cycle;Max_cycle;Signal;HPM_P1;HPM_P2
2023/01/21 00:00:30;;;;;;;;;2.25;0.25;;;;;12.13;50.05;100529.13;146618;569;46912;-74
2023/01/21 00:03:38;;;;;;;;;;;;;;;;;;;;;
2023/01/21 00:06:34;;;;;;;;;1.25;0.25;;;;;12.14;51.07;100538.69;146619;678;46016;-74
2023/01/21 00:09:32;;;;;;;;;0.50;0.50;;;;;12.11;51.57;100526.44;146623;702;46011;-76
2023/01/21 00:12:30;;;;;;;;;1.75;0.75;;;;;12.09;52.60;100535.03;146616;591;46915;-75
2023/01/21 00:15:29;;;;;;;;;0.75;0.00;;;;;11.54;52.46;100433.09;146621;658;46012;-75
2023/01/21 00:18:27;;;;;;;;;1.00;1.00;;;;;12.17;52.18;100544.00;146615;637;46017;-75
2023/01/21 00:21:28;;;;;;;;;1.25;0.25;;;;;12.17;51.63;100534.50;146621;639;46012;-76
2023/01/21 00:24:32;;;;;;;;;3.00;3.00;;;;;12.22;51.46;100538.19;146618;610;46012;-72
2023/01/21 00:27:36;;;;;;;;;0.75;0.75;;;;;12.27;51.16;100551.34;146622;734;46010;-74
2023/01/21 00:30:35;;;;;;;;;0.00;0.00;;;;;12.24;51.30;100533.94;146619;578;46017;-75
2023/01/21 00:33:39;;;;;;;;;1.00;1.00;;;;;12.28;50.80;100545.34;146622;594;46010;-74
2023/01/21 00:36:33;;;;;;;;;0.75;0.00;;;;;12.33;50.86;100540.31;146613;614;46016;-72
2023/01/21 00:39:28;;;;;;;;;1.25;1.00;;;;;12.32;50.76;100529.03;146621;629;46021;-74
2023/01/21 00:42:27;;;;;;;;;1.00;1.00;;;;;12.35;50.44;100531.78;146616;692;46016;-77
2023/01/21 00:45:23;;;;;;;;;0.50;0.50;;;;;12.36;50.70;100517.94;146620;570;47010;-77
2023/01/21 00:48:27;;;;;;;;;0.00;0.00;;;;;12.36;51.07;100517.06;146618;626;46012;-76
2023/01/21 00:51:21;;;;;;;;;1.00;0.00;;;;;12.31;51.58;100523.78;146619;627;46020;-77
2023/01/21 00:54:13;;;;;;;;;0.25;0.00;;;;;12.32;51.70;100510.84;146617;566;46916;-78
2023/01/21 00:57:09;;;;;;;;;4.25;1.75;;;;;12.34;51.66;100492.72;146621;569;46020;-76
2023/01/21 01:00:13;;;;;;;;;3.00;0.50;;;;;12.34;51.50;100509.22;146617;583;46012;-76
2023/01/21 01:03:09;;;;;;;;;0.00;0.00;;;;;12.37;51.56;100511.94;146623;649;46020;-73
2023/01/21 01:06:26;;;;;;;;;2.25;2.00;;;;;11.72;50.69;100393.16;146617;580;46016;-79
2023/01/21 01:09:24;;;;;;;;;2.00;2.00;;;;;12.39;51.13;100507.66;146622;589;46021;-79
2023/01/21 01:12:17;;;;;;;;;2.00;1.50;;;;;12.38;51.33;100503.28;146620;569;46016;-80
2023/01/21 01:15:16;;;;;;;;;1.25;0.50;;;;;12.36;51.25;100509.25;146621;585;46021;-76
2023/01/21 01:18:20;;;;;;;;;0.50;0.00;;;;;12.32;51.03;100489.16;146620;569;46012;-78
2023/01/21 01:21:19;;;;;;;;;1.00;1.00;;;;;12.31;51.88;100498.69;146620;597;46020;-77
2023/01/21 01:24:33;;;;;;;;;0.75;0.75;;;;;11.65;51.82;100386.81;146619;661;46012;-77
2023/01/21 01:27:29;;;;;;;;;0.50;0.50;;;;;12.28;52.77;100490.75;146622;563;46020;-77
2023/01/21 01:30:30;;;;;;;;;2.75;0.00;;;;;12.27;52.92;100483.75;146619;674;46916;-75
2023/01/21 01:33:35;;;;;;;;;1.75;1.75;;;;;12.27;53.05;100481.16;146624;575;46010;-76
2023/01/21 01:36:37;;;;;;;;;2.00;0.75;;;;;12.23;53.81;100471.47;146619;593;46012;-74
2023/01/21 01:39:33;;;;;;;;;0.00;0.00;;;;;12.17;54.75;100460.81;146619;622;46021;-76
2023/01/21 01:42:27;;;;;;;;;1.50;1.50;;;;;12.15;54.52;100473.78;146617;570;46016;-73
2023/01/21 01:45:26;;;;;;;;;1.25;1.25;;;;;12.13;54.70;100475.41;146620;668;46020;-75
2023/01/21 01:48:33;;;;;;;;;0.00;0.00;;;;;12.13;54.58;100493.59;146618;615;46014;-76
2023/01/21 01:52:09;;;;;;;;;;;;;;;;;;;;;
2023/01/21 01:55:11;;;;;;;;;0.50;0.00;;;;;12.11;55.32;100495.25;146619;564;46019;-74
2023/01/21 01:58:47;;;;;;;;;2.75;0.00;;;;;11.03;55.71;100299.41;146622;628;46020;-74
2023/01/21 02:01:53;;;;;;;;;2.75;1.75;;;;;11.45;56.12;100352.22;146619;592;45017;-75
2023/01/21 02:05:13;;;;;;;;;3.00;1.75;;;;;12.15;56.01;100450.37;146620;639;46012;-74
2023/01/21 02:08:10;;;;;;;;;0.75;0.75;;;;;12.10;56.49;100458.81;146615;619;47013;-73
2023/01/21 02:11:15;;;;;;;;;2.25;0.00;;;;;12.08;55.96;100444.84;146618;588;46010;-73
2023/01/21 02:14:18;;;;;;;;;1.50;0.25;;;;;12.06;55.08;100463.00;146616;565;46016;-75
2023/01/21 02:18:28;;;;;;;;;0.00;0.00;;;;;11.42;53.90;100344.31;146621;570;46020;-74
2023/01/21 02:21:48;;;;;;;;;1.25;0.00;;;;;12.18;53.91;100449.59;146620;690;46013;-76
2023/01/21 02:25:25;;;;;;;;;2.75;0.75;;;;;12.24;53.53;100452.44;146621;634;46020;-73
2023/01/21 02:28:55;;;;;;;;;3.00;2.00;;;;;12.28;53.31;100449.16;146619;618;46012;-76
2023/01/21 02:32:26;;;;;;;;;0.75;0.75;;;;;12.27;53.61;100444.75;146621;667;46020;-73
2023/01/21 02:35:59;;;;;;;;;0.00;0.00;;;;;12.24;52.97;100432.56;146615;590;46016;-73
2023/01/21 02:39:29;;;;;;;;;1.25;0.00;;;;;12.25;53.56;100438.62;146621;673;46020;-73
2023/01/21 02:42:56;;;;;;;;;0.50;0.00;;;;;12.25;53.03;100439.53;146618;563;46016;-75
2023/01/21 02:46:15;;;;;;;;;1.00;1.00;;;;;11.62;53.48;100318.25;146622;581;46010;-73
2023/01/21 02:49:35;;;;;;;;;0.75;0.75;;;;;12.25;53.66;100416.13;146619;569;46916;-73
2023/01/21 02:52:43;;;;;;;;;1.00;1.00;;;;;12.20;53.63;100417.66;146623;600;46013;-73
2023/01/21 02:55:47;;;;;;;;;1.50;0.50;;;;;12.15;53.70;100427.00;146607;655;47917;-72
2023/01/21 02:58:50;;;;;;;;;2.75;0.50;;;;;12.12;53.95;100424.28;146620;625;46020;-71
2023/01/21 03:02:44;;;;;;;;;0.50;0.50;;;;;12.10;53.60;100422.44;146620;612;46012;-72
2023/01/21 03:06:30;;;;;;;;;0.75;0.75;;;;;11.39;53.51;100294.84;146623;690;45020;-74
2023/01/21 03:09:46;;;;;;;;;0.50;0.50;;;;;11.41;53.58;100300.12;146616;579;46014;-74
2023/01/21 03:17:08;;;;;;;;;2.00;1.75;;;;;12.09;55.13;100415.47;146617;601;46016;-80
2023/01/21 03:20:45;;;;;;;;;0.00;0.00;;;;;10.92;54.56;100200.38;146618;636;46020;-80
2023/01/21 03:23:52;;;;;;;;;3.25;2.00;;;;;12.12;56.04;100405.16;146619;574;46012;-77
2023/01/21 03:26:58;;;;;;;;;2.50;1.50;;;;;12.13;55.87;100394.84;146619;579;46020;-76
2023/01/21 03:29:56;;;;;;;;;0.00;0.00;;;;;12.09;56.57;100384.28;146618;577;46013;-81
2023/01/21 03:32:57;;;;;;;;;0.50;0.50;;;;;12.13;56.74;100373.16;146620;579;46020;-74
2023/01/21 03:36:03;;;;;;;;;1.50;0.00;;;;;12.17;56.31;100375.06;146619;687;46013;-74
2023/01/21 03:39:16;;;;;;;;;0.00;0.00;;;;;12.20;56.07;100383.84;146620;697;46021;-74
2023/01/21 03:42:09;;;;;;;;;4.00;1.00;;;;;12.20;56.58;100380.38;146619;635;46012;-75
2023/01/21 03:45:38;;;;;;;;;0.25;0.25;;;;;11.57;55.88;100274.81;146620;606;46021;-73
2023/01/21 03:49:06;;;;;;;;;0.50;0.50;;;;;12.23;55.65;100381.38;146619;715;46012;-74
2023/01/21 03:52:09;;;;;;;;;0.00;0.00;;;;;12.27;55.07;100397.09;146615;595;46021;-74
2023/01/21 03:55:02;;;;;;;;;0.00;0.00;;;;;12.30;55.27;100390.28;146614;593;46016;-77
2023/01/21 03:58:00;;;;;;;;;0.00;0.00;;;;;12.30;55.12;100390.28;146620;638;46029;-74
2023/01/21 04:00:57;;;;;;;;;1.00;0.00;;;;;12.32;55.10;100382.56;146618;566;46016;-73
2023/01/21 04:03:53;;;;;;;;;0.75;0.50;;;;;12.37;54.48;100383.66;146621;612;46020;-75
2023/01/21 04:06:48;;;;;;;;;3.25;0.75;;;;;12.45;54.68;100379.59;146611;606;46037;-77
2023/01/21 04:09:53;;;;;;;;;1.00;1.00;;;;;12.43;55.08;100384.75;146617;595;46020;-74
2023/01/21 04:12:47;;;;;;;;;0.75;0.75;;;;;12.43;55.26;100389.09;146606;675;48916;-74
2023/01/21 04:15:42;;;;;;;;;1.25;1.25;;;;;12.45;55.26;100380.47;146619;569;46021;-74
2023/01/21 04:18:38;;;;;;;;;0.50;0.25;;;;;12.46;54.43;100382.28;146614;578;46016;-74
2023/01/21 04:21:30;;;;;;;;;0.50;0.00;;;;;12.52;54.52;100385.91;146612;638;46029;-73
2023/01/21 04:24:31;;;;;;;;;1.00;1.00;;;;;12.52;54.86;100389.41;146615;565;46038;-73
2023/01/21 04:27:26;;;;;;;;;1.00;1.00;;;;;12.57;54.61;100389.59;146621;623;46030;-73
2023/01/21 04:30:24;;;;;;;;;0.75;0.50;;;;;12.58;54.05;100393.94;146618;660;46012;-79
2023/01/21 04:33:17;;;;;;;;;2.50;1.50;;;;;12.60;53.80;100394.91;146621;637;47010;-78
2023/01/21 04:36:12;;;;;;;;;1.25;0.00;;;;;12.63;53.60;100400.22;146616;570;46016;-76
2023/01/21 04:39:10;;;;;;;;;1.50;0.00;;;;;12.65;53.68;100390.78;146621;618;46020;-74
2023/01/21 04:42:05;;;;;;;;;0.00;0.00;;;;;12.70;53.27;100387.50;146616;600;46014;-73
2023/01/21 04:45:03;;;;;;;;;0.00;0.00;;;;;12.73;53.00;100402.34;146617;638;46020;-73
2023/01/21 04:48:07;;;;;;;;;2.00;1.00;;;;;12.75;53.55;100398.09;146616;639;46915;-73
2023/01/21 04:51:07;;;;;;;;;0.00;0.00;;;;;12.77;53.57;100390.31;146614;644;46021;-74
2023/01/21 04:54:12;;;;;;;;;0.00;0.00;;;;;12.77;53.49;100393.81;146615;610;46016;-74
2023/01/21 04:57:10;;;;;;;;;0.75;0.25;;;;;12.82;53.14;100388.78;146621;681;46020;-74
2023/01/21 05:00:15;;;;;;;;;0.00;0.00;;;;;12.79;52.77;100366.13;146616;602;46016;-72
2023/01/21 05:03:13;;;;;;;;;0.00;0.00;;;;;12.79;52.54;100386.94;146621;685;46020;-73
2023/01/21 05:06:05;;;;;;;;;0.00;0.00;;;;;12.78;53.03;100386.91;146617;702;46026;-73
2023/01/21 05:09:20;;;;;;;;;;;;;;;;;;;;;
2023/01/21 05:12:17;;;;;;;;;0.00;0.00;;;;;12.87;52.96;100419.34;146615;591;46016;-73
2023/01/21 05:15:27;;;;;;;;;0.00;0.00;;;;;12.92;53.58;100438.59;146619;619;46021;-72
2023/01/21 05:18:22;;;;;;;;;1.25;0.50;;;;;12.95;53.17;100446.53;146615;585;46024;-74
2023/01/21 05:21:16;;;;;;;;;2.75;2.75;;;;;12.99;53.22;100442.34;146619;603;46021;-73
2023/01/21 05:24:20;;;;;;;;;1.00;0.25;;;;;13.02;52.61;100437.25;146618;612;46012;-72
2023/01/21 05:27:15;;;;;;;;;0.00;0.00;;;;;13.04;52.70;100434.69;146621;634;46013;-72
2023/01/21 05:30:27;;;;;;;;;0.00;0.00;;;;;13.06;52.38;100439.12;146616;584;46012;-75
2023/01/21 05:33:33;;;;;;;;;1.00;0.00;;;;;13.07;52.42;100430.47;146623;589;46010;-74
2023/01/21 05:36:37;;;;;;;;;1.25;0.50;;;;;13.07;52.54;100429.59;146616;585;46017;-74
2023/01/21 05:39:35;;;;;;;;;0.50;0.00;;;;;13.07;52.67;100432.22;146620;734;46012;-73
2023/01/21 05:42:30;;;;;;;;;1.00;0.00;;;;;13.08;52.51;100421.88;146617;588;46916;-75
2023/01/21 05:45:30;;;;;;;;;2.00;2.00;;;;;13.10;52.96;100416.69;146620;588;46021;-72
2023/01/21 05:48:27;;;;;;;;;0.00;0.00;;;;;13.08;52.51;100393.25;146618;581;46016;-72
2023/01/21 05:51:24;;;;;;;;;0.00;0.00;;;;;13.07;52.59;100409.66;146618;679;46011;-74
2023/01/21 05:54:20;;;;;;;;;0.00;0.00;;;;;13.09;52.76;100407.13;146616;641;46016;-73
2023/01/21 05:57:15;;;;;;;;;0.00;0.00;;;;;13.09;52.79;100418.41;146622;613;46021;-72
2023/01/21 06:00:11;;;;;;;;;1.25;1.00;;;;;13.10;53.33;100411.50;146620;583;46012;-72
2023/01/21 06:03:08;;;;;;;;;0.75;0.75;;;;;13.12;53.12;100409.84;146622;718;46010;-78
2023/01/21 06:06:07;;;;;;;;;0.50;0.50;;;;;13.16;52.98;100398.69;146614;702;46017;-79
2023/01/21 06:09:25;;;;;;;;;;;;;;;;;;;;;
2023/01/21 06:12:29;;;;;;;;;0.00;0.00;;;;;13.23;52.87;100411.09;146617;672;46034;-73
2023/01/21 06:15:35;;;;;;;;;0.00;0.00;;;;;13.31;52.58;100419.22;146621;569;46010;-72
2023/01/21 06:18:38;;;;;;;;;0.00;0.00;;;;;13.35;52.81;100410.69;146614;669;47016;-73
2023/01/21 06:21:33;;;;;;;;;0.00;0.00;;;;;13.72;51.88;100418.03;146616;571;46020;-73
2023/01/21 06:24:29;;;;;;;;;0.25;0.00;;;;;13.78;50.57;100326.16;146619;593;46012;-73
2023/01/21 06:27:37;;;;;;;;;0.25;0.00;;;;;14.89;49.10;100414.78;146619;631;46021;-73
2023/01/21 06:30:35;;;;;;;;;1.00;1.00;;;;;15.33;48.36;100411.62;146613;629;46016;-74
2023/01/21 06:33:27;;;;;;;;;1.25;0.50;;;;;15.76;47.71;100408.41;146619;606;46020;-75
2023/01/21 06:36:34;;;;;;;;;2.75;0.50;;;;;16.43;47.18;100423.97;146620;627;46013;-75
2023/01/21 06:39:26;;;;;;;;;0.00;0.00;;;;;16.96;44.93;100425.16;146622;584;46010;-74
2023/01/21 06:42:39;;;;;;;;;;;;;;;;;;;;;
2023/01/21 06:45:40;;;;;;;;;0.00;0.00;;;;;18.28;43.06;100434.50;146621;652;46020;-73
2023/01/21 06:48:38;;;;;;;;;0.67;0.00;;;;;18.69;41.85;100448.22;146617;617;46016;-73
2023/01/21 06:51:37;;;;;;;;;0.00;0.00;;;;;18.93;40.49;100443.34;146613;586;46021;-72
2023/01/21 06:54:47;;;;;;;;;;;;;;;;;;;;;
2023/01/21 06:57:59;;;;;;;;;0.00;0.00;;;;;18.63;40.52;100462.19;146619;570;46021;-75
2023/01/21 07:00:54;;;;;;;;;0.00;0.00;;;;;18.39;41.91;100454.81;146615;605;46016;-70
2023/01/21 07:04:02;;;;;;;;;;;;;;;;;;;;;
2023/01/21 07:07:08;;;;;;;;;0.00;0.00;;;;;18.34;42.02;100445.97;146617;569;47014;-74
2023/01/21 07:10:09;;;;;;;;;0.00;0.00;;;;;18.08;41.79;100456.09;146621;646;46012;-72
2023/01/21 07:13:01;;;;;;;;;0.00;0.00;;;;;17.46;42.56;100454.06;146621;590;46012;-72
2023/01/21 07:16:05;;;;;;;;;0.67;0.00;;;;;16.83;44.29;100457.16;146620;601;46020;-71
2023/01/21 07:18:58;;;;;;;;;1.00;1.00;;;;;16.34;45.20;100472.59;146616;615;46016;-73
2023/01/21 07:22:06;;;;;;;;;;;;;;;;;;;;;
2023/01/21 07:24:59;;;;;;;;;2.00;2.00;;;;;15.32;47.48;100496.03;146620;604;46032;-77
2023/01/21 07:28:08;;;;;;;;;;;;;;;;;;;;;
2023/01/21 07:31:05;;;;;;;;;1.00;0.25;;;;;14.79;49.38;100478.84;146618;707;46012;-73
2023/01/21 07:34:01;;;;;;;;;0.50;0.00;;;;;14.60;49.57;100475.62;146622;647;46010;-77
2023/01/21 07:37:04;;;;;;;;;1.00;0.00;;;;;13.84;50.28;100368.94;146617;579;46031;-80
2023/01/21 07:40:05;;;;;;;;;1.33;0.33;;;;;14.34;50.58;100475.69;146621;584;46010;-76
2023/01/21 07:43:04;;;;;;;;;0.67;0.00;;;;;14.30;51.10;100487.75;146617;657;47014;-78
2023/01/21 07:46:06;;;;;;;;;0.00;0.00;;;;;14.34;51.30;100491.31;146622;606;46020;-75
2023/01/21 07:49:05;;;;;;;;;2.00;1.25;;;;;14.34;51.37;100491.31;146616;574;46016;-77
2023/01/21 07:52:06;;;;;;;;;0.25;0.00;;;;;14.32;51.79;100490.38;146611;626;46021;-76
2023/01/21 07:54:58;;;;;;;;;6.00;5.00;;;;;13.78;52.28;100391.31;146618;585;46012;-73
2023/01/21 07:58:05;;;;;;;;;4.75;3.00;;;;;14.34;52.08;100465.25;146619;573;46010;-74
2023/01/21 08:00:58;;;;;;;;;9.75;7.00;;;;;14.36;53.14;100480.94;146619;573;46034;-74
2023/01/21 08:03:51;;;;;;;;;5.50;4.25;;;;;14.38;53.36;100481.88;146620;696;46020;-76
2023/01/21 08:06:49;;;;;;;;;4.75;3.75;;;;;14.42;53.07;100487.22;146617;587;46016;-78
2023/01/21 08:09:59;;;;;;;;;3.00;2.00;;;;;14.50;52.29;100497.91;146622;657;46020;-77
2023/01/21 08:13:06;;;;;;;;;2.00;0.75;;;;;14.51;51.86;100487.53;146618;564;46916;-75
2023/01/21 08:16:10;;;;;;;;;2.00;1.00;;;;;14.56;51.91;100498.16;146622;664;46020;-77
2023/01/21 08:19:05;;;;;;;;;1.00;1.00;;;;;14.63;52.25;100470.50;146618;599;46014;-79
2023/01/21 08:22:25;;;;;;;;;0.25;0.00;;;;;14.64;52.62;100493.16;146612;629;46020;-77
2023/01/21 08:25:24;;;;;;;;;0.00;0.00;;;;;14.69;51.85;100481.13;146619;593;46016;-79
2023/01/21 08:28:16;;;;;;;;;2.00;0.00;;;;;14.69;52.29;100484.63;146622;570;46021;-75
2023/01/21 08:31:15;;;;;;;;;1.00;1.00;;;;;14.72;52.74;100479.50;146618;638;46012;-77
2023/01/21 08:34:14;;;;;;;;;0.00;0.00;;;;;14.71;52.99;100490.78;146623;579;46010;-76
2023/01/21 08:37:15;;;;;;;;;1.00;0.00;;;;;14.73;53.38;100509.97;146618;692;46915;-76
2023/01/21 08:40:22;;;;;;;;;1.25;0.25;;;;;14.82;53.29;100508.50;146623;631;46010;-76
2023/01/21 08:43:14;;;;;;;;;1.67;1.00;;;;;14.94;53.88;100501.03;146615;664;46016;-76
2023/01/21 08:46:10;;;;;;;;;2.50;1.25;;;;;15.04;53.38;100516.13;146621;597;46020;-77
2023/01/21 08:49:06;;;;;;;;;1.00;0.00;;;;;15.09;52.79;100500.63;146618;621;46014;-80
2023/01/21 08:52:02;;;;;;;;;0.00;0.00;;;;;15.17;53.27;100519.97;146609;588;46020;-76
2023/01/21 08:55:07;;;;;;;;;0.00;0.00;;;;;15.18;52.74;100513.94;146618;620;46015;-74
2023/01/21 08:58:05;;;;;;;;;1.33;0.00;;;;;15.27;53.06;100519.44;146624;634;46010;-74
2023/01/21 09:01:00;;;;;;;;;0.00;0.00;;;;;15.34;52.69;100495.25;146605;620;49916;-75
2023/01/21 09:03:59;;;;;;;;;1.25;0.25;;;;;15.40;52.38;100507.59;146622;575;46021;-73
2023/01/21 09:06:58;;;;;;;;;0.33;0.00;;;;;15.40;51.98;100505.88;146618;573;46012;-75
2023/01/21 09:09:52;;;;;;;;;0.67;0.67;;;;;15.38;52.29;100548.47;146621;641;46020;-74
2023/01/21 09:12:51;;;;;;;;;2.00;2.00;;;;;15.35;52.93;100525.75;146616;727;46016;-75
2023/01/21 09:15:50;;;;;;;;;0.00;0.00;;;;;15.33;51.97;100518.72;146623;600;46010;-75
2023/01/21 09:18:46;;;;;;;;;0.00;0.00;;;;;15.24;52.46;100514.13;146610;570;49912;-74
2023/01/21 09:21:53;;;;;;;;;0.00;0.00;;;;;15.30;53.06;100505.59;146612;569;47010;-76
2023/01/21 09:24:59;;;;;;;;;;;;;;;;;;;;;
2023/01/21 09:28:03;;;;;;;;;0.33;0.33;;;;;15.33;54.45;100523.97;146622;671;46010;-78
2023/01/21 09:31:00;;;;;;;;;0.00;0.00;;;;;15.29;53.93;100515.13;146620;609;46012;-76
2023/01/21 09:33:56;;;;;;;;;1.00;0.33;;;;;15.26;54.78;100512.41;146623;665;46011;-74
2023/01/21 09:36:49;;;;;;;;;0.00;0.00;;;;;15.23;54.15;100504.50;146619;669;46912;-76
2023/01/21 09:39:44;;;;;;;;;1.67;0.00;;;;;15.20;54.25;100504.41;146621;590;46020;-74
2023/01/21 09:42:42;;;;;;;;;0.00;0.00;;;;;15.19;53.89;100489.59;146616;644;47012;-76
2023/01/21 09:45:39;;;;;;;;;0.00;0.00;;;;;15.23;53.40;100481.91;146623;593;46031;-75
2023/01/21 09:48:47;;;;;;;;;1.25;0.25;;;;;15.27;53.26;100495.06;146616;640;46014;-75
2023/01/21 09:52:10;;;;;;;;;2.25;0.50;;;;;15.31;52.94;100479.50;146613;705;46020;-76
2023/01/21 09:55:05;;;;;;;;;0.00;0.00;;;;;14.76;53.75;100383.91;146616;577;46017;-75
2023/01/21 09:58:29;;;;;;;;;0.00;0.00;;;;;15.35;53.95;100488.28;146621;582;46010;-76
2023/01/21 10:01:35;;;;;;;;;0.50;0.00;;;;;15.40;52.92;100513.72;146617;591;46017;-73
2023/01/21 10:04:55;;;;;;;;;0.33;0.00;;;;;15.45;52.91;100498.16;146622;595;46010;-74
2023/01/21 10:08:35;;;;;;;;;1.00;0.33;;;;;14.15;53.11;100288.19;146617;585;47016;-74
2023/01/21 10:11:54;;;;;;;;;0.00;0.00;;;;;15.12;53.31;100436.28;146621;570;46011;-74
2023/01/21 10:15:22;;;;;;;;;1.00;0.00;;;;;15.61;53.22;100509.94;146620;575;46012;-75
2023/01/21 10:18:40;;;;;;;;;1.33;0.33;;;;;14.44;54.48;100305.56;146621;573;46011;-74
2023/01/21 10:21:49;;;;;;;;;0.00;0.00;;;;;15.59;54.60;100490.72;146618;652;46016;-74
2023/01/21 10:24:57;;;;;;;;;0.00;0.00;;;;;15.55;54.36;100478.41;146612;569;46021;-76
2023/01/21 10:28:12;;;;;;;;;2.00;0.00;;;;;15.09;54.61;100410.09;146617;667;46016;-77
2023/01/21 10:31:44;;;;;;;;;1.00;0.00;;;;;15.54;52.69;100497.53;146615;613;46020;-76
2023/01/21 10:35:03;;;;;;;;;1.00;0.00;;;;;15.51;54.23;100477.41;146618;635;46016;-76
2023/01/21 10:38:54;;;;;;;;;0.00;0.00;;;;;14.44;53.91;100291.63;146620;649;47010;-74
2023/01/21 10:42:23;;;;;;;;;0.00;0.00;;;;;15.65;53.25;100485.66;146618;687;46911;-74
2023/01/21 10:46:13;;;;;;;;;1.75;0.00;;;;;14.58;52.47;100271.19;146622;735;46020;-75
2023/01/21 10:50:03;;;;;;;;;0.75;0.00;;;;;14.74;52.79;100309.94;146616;576;46017;-78
2023/01/21 10:53:55;;;;;;;;;0.00;0.00;;;;;14.69;52.94;100269.75;146622;590;47008;-75
2023/01/21 10:57:28;;;;;;;;;3.00;1.00;;;;;14.76;53.61;100269.94;146617;598;46912;-74
2023/01/21 11:00:43;;;;;;;;;0.33;0.33;;;;;16.16;53.02;100462.56;146619;602;46010;-76
2023/01/21 11:03:49;;;;;;;;;1.00;0.00;;;;;16.32;54.17;100460.31;146617;615;46013;-76
2023/01/21 11:06:57;;;;;;;;;2.75;0.00;;;;;16.42;53.52;100446.63;146620;600;46010;-73
2023/01/21 11:10:01;;;;;;;;;0.00;0.00;;;;;16.49;53.16;100448.53;146617;638;46016;-75
2023/01/21 11:13:00;;;;;;;;;4.75;0.25;;;;;16.59;53.28;100445.25;146620;611;46010;-74
2023/01/21 11:16:12;;;;;;;;;1.00;0.00;;;;;16.85;53.40;100439.75;146615;608;47012;-76
2023/01/21 11:19:21;;;;;;;;;0.00;0.00;;;;;17.11;52.71;100432.44;146618;564;46010;-75
2023/01/21 11:22:45;;;;;;;;;0.00;0.00;;;;;16.39;51.58;100237.22;146616;587;46016;-76
2023/01/21 11:26:00;;;;;;;;;2.00;0.00;;;;;17.81;50.51;100429.38;146622;594;46011;-76
2023/01/21 11:29:10;;;;;;;;;0.25;0.00;;;;;17.99;49.05;100427.06;146616;576;46016;-75
2023/01/21 11:32:24;;;;;;;;;0.00;0.00;;;;;18.05;47.59;100428.91;146618;598;46021;-75
2023/01/21 11:35:25;;;;;;;;;2.00;0.00;;;;;17.98;49.83;100423.56;146619;569;46016;-75
2023/01/21 11:38:50;;;;;;;;;0.33;0.33;;;;;17.94;49.70;100419.13;146622;669;46020;-75
2023/01/21 11:42:14;;;;;;;;;0.00;0.00;;;;;17.71;48.97;100412.56;146616;584;47012;-75
2023/01/21 11:45:35;;;;;;;;;5.00;3.50;;;;;17.42;49.72;100410.31;146619;644;46020;-74
2023/01/21 11:48:30;;;;;;;;;6.50;3.25;;;;;17.18;49.68;100415.97;146617;716;46012;-73
2023/01/21 11:51:25;;;;;;;;;7.00;6.00;;;;;17.07;50.04;100422.72;146620;589;46020;-76
2023/01/21 11:54:25;;;;;;;;;6.00;5.50;;;;;17.02;50.10;100421.78;146616;638;47012;-74
2023/01/21 11:57:37;;;;;;;;;2.75;2.00;;;;;16.92;49.93;100420.72;146620;612;47020;-76
2023/01/21 12:00:58;;;;;;;;;2.00;1.00;;;;;16.80;49.04;100418.72;146618;610;47015;-75
2023/01/21 12:04:04;;;;;;;;;0.00;0.00;;;;;16.60;49.02;100433.06;146611;597;46021;-76
2023/01/21 12:07:05;;;;;;;;;1.33;0.00;;;;;16.56;49.77;100424.25;146615;569;48016;-75
2023/01/21 12:10:41;;;;;;;;;0.00;0.00;;;;;15.54;49.60;100244.94;146623;565;46010;-75
2023/01/21 12:14:26;;;;;;;;;3.50;3.00;;;;;15.64;50.24;100251.28;146613;610;46014;-77
2023/01/21 12:17:54;;;;;;;;;3.00;2.67;;;;;15.62;50.39;100250.34;146622;726;46011;-75
2023/01/21 12:21:20;;;;;;;;;2.75;1.00;;;;;16.76;51.37;100423.84;146617;571;46016;-76
2023/01/21 12:25:00;;;;;;;;;1.00;1.00;;;;;16.89;51.18;100402.31;146621;599;46020;-75
2023/01/21 12:29:06;;;;;;;;;0.00;0.00;;;;;16.03;50.40;100232.12;146613;623;47012;-76
2023/01/21 12:32:37;;;;;;;;;1.33;0.33;;;;;17.18;49.06;100404.62;146618;640;48012;-77
2023/01/21 12:35:53;;;;;;;;;0.25;0.00;;;;;17.23;49.36;100395.12;146615;649;46016;-76
2023/01/21 12:38:56;;;;;;;;;1.00;0.00;;;;;17.34;49.71;100393.56;146608;610;46010;-74
2023/01/21 12:42:01;;;;;;;;;1.33;0.67;;;;;17.61;51.12;100393.19;146615;609;46016;-75
2023/01/21 12:45:41;;;;;;;;;0.00;0.00;;;;;18.03;49.64;100401.75;146620;644;47010;-75
2023/01/21 12:48:58;;;;;;;;;0.33;0.33;;;;;18.26;48.41;100402.13;146619;589;46012;-76
2023/01/21 12:52:30;;;;;;;;;1.67;0.33;;;;;18.26;47.39;100420.50;146619;565;47010;-75
2023/01/21 12:55:54;;;;;;;;;0.00;0.00;;;;;18.08;46.64;100414.09;146618;564;47012;-74
2023/01/21 12:59:03;;;;;;;;;1.00;0.00;;;;;17.82;48.32;100423.25;146621;597;46020;-75
2023/01/21 13:02:19;;;;;;;;;0.00;0.00;;;;;17.56;49.68;100413.19;146618;683;46013;-77
2023/01/21 13:05:42;;;;;;;;;0.33;0.00;;;;;17.39;49.43;100404.16;146621;569;46010;-77
2023/01/21 13:08:51;;;;;;;;;0.00;0.00;;;;;17.29;49.42;100413.59;146619;569;47026;-76
2023/01/21 13:12:36;;;;;;;;;0.00;0.00;;;;;16.17;49.40;100235.91;146619;589;46020;-74
2023/01/21 13:15:46;;;;;;;;;0.00;0.00;;;;;17.47;49.17;100429.63;146614;602;46016;-74
2023/01/21 13:18:50;;;;;;;;;0.33;0.00;;;;;17.80;49.33;100427.63;146621;574;46020;-74
2023/01/21 13:22:10;;;;;;;;;0.00;0.00;;;;;18.28;49.49;100434.50;146609;597;47912;-76
2023/01/21 13:25:35;;;;;;;;;2.00;2.00;;;;;18.69;47.95;100427.22;146619;588;47020;-75
2023/01/21 13:28:56;;;;;;;;;1.33;0.00;;;;;18.90;46.40;100424.91;146617;576;47911;-76
2023/01/21 13:32:17;;;;;;;;;0.67;0.00;;;;;18.67;46.17;100423.72;146617;619;46021;-76
2023/01/21 13:35:59;;;;;;;;;0.00;0.00;;;;;18.26;46.19;100434.50;146617;591;46016;-77
2023/01/21 13:39:39;;;;;;;;;0.00;0.00;;;;;16.80;46.84;100264.22;146622;572;46021;-77
2023/01/21 13:42:58;;;;;;;;;0.00;0.00;;;;;17.56;47.70;100457.75;146618;575;46016;-76
2023/01/21 13:46:41;;;;;;;;;0.00;0.00;;;;;17.32;47.83;100466.06;146613;605;46021;-73
2023/01/21 13:50:15;;;;;;;;;0.00;0.00;;;;;17.16;47.00;100458.72;146617;602;46016;-75
2023/01/21 13:53:52;;;;;;;;;0.00;0.00;;;;;17.07;47.14;100464.63;146622;607;46020;-75
2023/01/21 13:57:33;;;;;;;;;0.00;0.00;;;;;15.89;48.57;100281.50;146605;579;48014;-74
2023/01/21 14:00:38;;;;;;;;;0.00;0.00;;;;;16.91;48.04;100470.41;146616;676;46021;-73
2023/01/21 14:04:15;;;;;;;;;0.00;0.00;;;;;15.79;48.99;100279.50;146615;585;46016;-75
2023/01/21 14:07:39;;;;;;;;;0.00;0.00;;;;;16.90;47.74;100477.41;146620;632;46020;-76
2023/01/21 14:10:59;;;;;;;;;0.00;0.00;;;;;15.81;46.90;100277.81;146617;652;46016;-73
2023/01/21 14:14:53;;;;;;;;;3.25;1.75;;;;;16.03;48.36;100294.87;146620;569;46010;-75
2023/01/21 14:18:26;;;;;;;;;8.00;7.75;;;;;16.05;48.66;100275.75;146618;577;47012;-74
2023/01/21 14:22:00;;;;;;;;;2.75;0.00;;;;;16.24;48.92;100342.44;146614;570;46012;-75
2023/01/21 14:25:32;;;;;;;;;1.00;1.00;;;;;17.06;49.24;100489.97;146618;595;46021;-74
2023/01/21 14:29:09;;;;;;;;;0.50;0.50;;;;;16.92;50.16;100485.31;146620;608;46012;-74
2023/01/21 14:32:26;;;;;;;;;0.00;0.00;;;;;16.79;49.23;100491.97;146617;564;46014;-73
2023/01/21 14:35:37;;;;;;;;;0.00;0.00;;;;;16.70;48.97;100489.13;146618;563;46030;-74
2023/01/21 14:38:56;;;;;;;;;1.00;0.00;;;;;16.63;48.92;100489.00;146610;611;47911;-76
2023/01/21 14:42:25;;;;;;;;;0.00;0.00;;;;;16.58;49.13;100492.38;146616;577;47010;-78
2023/01/21 14:45:48;;;;;;;;;0.00;0.00;;;;;16.51;49.25;100496.56;146619;583;46026;-75
2023/01/21 14:48:56;;;;;;;;;0.00;0.00;;;;;16.47;50.45;100497.31;146621;641;46010;-74
2023/01/21 14:51:56;;;;;;;;;1.00;1.00;;;;;16.48;51.49;100508.69;146617;730;46013;-77
2023/01/21 14:54:57;;;;;;;;;0.00;0.00;;;;;16.46;52.26;100507.78;146615;612;46020;-74
2023/01/21 14:57:59;;;;;;;;;0.33;0.33;;;;;16.50;52.38;100522.69;146621;626;46035;-74
2023/01/21 15:01:09;;;;;;;;;;;;;;;;;;;;;